Time;durP1;ratioP1;P1;durP2;ratioP2;P2;SDS_P1;SDS_P2;PMS_P1;PMS_P2;Temp;Humidity;BMP_temperature;BMP_pressure;BME280_temperature;BME280_humidity;BME280_pressure;Samples;Min_cycle;Max_cycle;Signal;HPM_P1;HPM_P2
2022/01/13 07:18:07;;;;;;;10.15;9.02;;;;;;;;;;7370416;19;132423;-16
2022/01/13 07:20:40;;;;;;;6.55;5.25;;;;;;;;;;7364652;19;153842;-16
2022/01/13 07:23:11;;;;;;;9.65;8.23;;;;;;;;;;7363075;19;162106;-16
2022/01/13 07:25:43;;;;;;;10.20;9.30;;;;;;;;;;7363652;19;162579;-16
2022/01/13 07:28:14;;;;;;;9.23;8.35;;;;;;;;;;7364531;19;153861;-16
2022/01/13 07:30:45;;;;;;;9.07;8.25;;;;;;;;;;7364377;19;153778;-16
2022/01/13 07:33:19;;;;;;;9.68;8.77;;;;;;;;;;7363203;19;161910;-15
2022/01/13 07:35:50;;;;;;;9.20;8.32;;;;;;;;;;7363887;19;162362;-16
2022/01/13 07:38:21;;;;;;;9.57;8.77;;;;;;;;;;7364267;19;153855;-15
2022/01/13 07:40:52;;;;;;;8.75;7.93;;;;;;;;;;7364224;19;153520;-15
2022/01/13 07:43:25;;;;;;;8.48;7.72;;;;;;;;;;7363213;19;161926;-16
2022/01/13 07:45:57;;;;;;;8.18;7.47;;;;;;;;;;7362781;19;162325;-16
2022/01/13 07:48:34;;;;;;;9.65;8.23;;;;;;;;;;7363944;19;153944;-15
2022/01/13 07:51:05;;;;;;;7.93;7.18;;;;;;;;;;7363851;19;153566;-15
2022/01/13 07:53:36;;;;;;;7.78;7.07;;;;;;;;;;7363390;19;162270;-15
2022/01/13 07:56:08;;;;;;;8.25;7.55;;;;;;;;;;7363391;19;162482;-15
2022/01/13 07:58:40;;;;;;;8.00;7.20;;;;;;;;;;7363687;19;154347;-16
2022/01/13 08:01:11;;;;;;;7.60;6.90;;;;;;;;;;7363862;19;153540;-14
2022/01/13 08:03:45;;;;;;;7.30;6.60;;;;;;;;;;7363240;19;162110;-15
2022/01/13 08:06:17;;;;;;;6.97;6.38;;;;;;;;;;7362527;19;162477;-15
2022/01/13 08:08:48;;;;;;;6.45;5.85;;;;;;;;;;7363404;19;153991;-15
2022/01/13 08:11:19;;;;;;;6.50;5.90;;;;;;;;;;7363299;19;153677;-15
2022/01/13 08:13:51;;;;;;;6.45;5.88;;;;;;;;;;7362934;19;162026;-15
2022/01/13 08:16:32;;;;;;;5.30;4.90;;;;;;;;;;7360780;19;162407;-15
2022/01/13 08:21:54;;;;;;;6.00;5.07;;;;;;;;;;7334148;19;153635;-15
2022/01/13 08:24:26;;;;;;;6.05;5.55;;;;;;;;;;7334085;19;162121;-15
2022/01/13 08:26:57;;;;;;;6.32;5.75;;;;;;;;;;7333342;19;162629;-14
2022/01/13 08:29:29;;;;;;;6.28;5.75;;;;;;;;;;7336690;19;153956;-16
2022/01/13 08:32:00;;;;;;;4.65;4.30;;;;;;;;;;7334061;19;153297;-14
2022/01/13 08:34:34;;;;;;;4.28;3.88;;;;;;;;;;7333595;19;161816;-16
2022/01/13 08:37:05;;;;;;;4.68;3.80;;;;;;;;;;7333563;19;162481;-15
2022/01/13 08:39:43;;;;;;;4.32;3.92;;;;;;;;;;7333800;19;154292;-16
2022/01/13 08:42:16;;;;;;;4.03;3.60;;;;;;;;;;7333633;19;154473;-13
2022/01/13 08:44:52;;;;;;;4.43;4.03;;;;;;;;;;7335658;19;162017;-14
2022/01/13 08:47:28;;;;;;;4.07;3.78;;;;;;;;;;7331652;19;162537;-14
2022/01/13 08:50:07;;;;;;;3.60;3.30;;;;;;;;;;7333367;19;153935;-13
2022/01/13 08:52:45;;;;;;;3.75;3.45;;;;;;;;;;7332152;19;153927;-15
2022/01/13 08:55:16;;;;;;;3.70;3.40;;;;;;;;;;7332872;19;161824;-15
2022/01/13 08:57:48;;;;;;;3.60;3.30;;;;;;;;;;7332766;19;162399;-14
2022/01/13 09:00:19;;;;;;;3.95;3.65;;;;;;;;;;7333227;19;154289;-15
2022/01/13 09:02:50;;;;;;;3.70;3.40;;;;;;;;;;7333032;19;153859;-15
2022/01/13 09:05:24;;;;;;;5.15;3.60;;;;;;;;;;7331405;19;161987;-15
2022/01/13 09:07:56;;;;;;;3.05;2.85;;;;;;;;;;7331123;19;162524;-16
2022/01/13 09:10:27;;;;;;;3.17;2.90;;;;;;;;;;7333206;19;153929;-15
2022/01/13 09:12:58;;;;;;;3.42;3.13;;;;;;;;;;7331384;19;153569;-14
2022/01/13 09:15:36;;;;;;;3.10;2.90;;;;;;;;;;7331223;19;162096;-15
2022/01/13 09:18:16;;;;;;;2.88;2.67;;;;;;;;;;7332264;19;162211;-15
2022/01/13 09:20:51;;;;;;;2.90;2.70;;;;;;;;;;7332403;19;154185;-14
2022/01/13 09:23:22;;;;;;;2.90;2.67;;;;;;;;;;7332410;19;153563;-15
2022/01/13 09:25:54;;;;;;;3.22;2.92;;;;;;;;;;7331878;19;161925;-15
2022/01/13 09:28:26;;;;;;;3.33;2.80;;;;;;;;;;7329612;19;162533;-15
2022/01/13 09:30:57;;;;;;;2.30;2.10;;;;;;;;;;7330019;19;154182;-15
2022/01/13 09:33:29;;;;;;;2.65;2.45;;;;;;;;;;7332261;19;153616;-16
2022/01/13 09:36:03;;;;;;;2.60;2.40;;;;;;;;;;7331460;19;163277;-16
2022/01/13 09:38:34;;;;;;;2.50;2.30;;;;;;;;;;7331622;19;162646;-16
2022/01/13 09:41:06;;;;;;;2.60;2.40;;;;;;;;;;7334952;19;154181;-14
2022/01/13 09:43:38;;;;;;;2.20;2.10;;;;;;;;;;7331420;19;153664;-15
2022/01/13 09:46:10;;;;;;;2.53;2.33;;;;;;;;;;7329641;19;162193;-14
2022/01/13 09:48:43;;;;;;;2.13;2.03;;;;;;;;;;7329073;19;162596;-14
2022/01/13 09:51:17;;;;;;;2.17;2.08;;;;;;;;;;7331392;19;153933;-15
2022/01/13 09:53:48;;;;;;;2.53;2.33;;;;;;;;;;7330141;19;153532;-15
2022/01/13 09:56:19;;;;;;;2.10;2.00;;;;;;;;;;7330795;19;161962;-15
2022/01/13 09:58:50;;;;;;;2.10;2.00;;;;;;;;;;7330914;19;162548;-15
2022/01/13 10:01:22;;;;;;;2.20;2.00;;;;;;;;;;7331206;19;154020;-15
2022/01/13 10:03:53;;;;;;;2.35;2.17;;;;;;;;;;7331669;19;153566;-16
2022/01/13 10:06:27;;;;;;;1.80;1.70;;;;;;;;;;7330745;19;161842;-16
2022/01/13 10:09:00;;;;;;;1.83;1.70;;;;;;;;;;7328573;19;162530;-15
2022/01/13 10:11:36;;;;;;;1.70;1.60;;;;;;;;;;7330909;19;153971;-16
2022/01/13 10:14:12;;;;;;;1.88;1.77;;;;;;;;;;7330728;19;153759;-15
2022/01/13 10:16:46;;;;;;;2.50;1.75;;;;;;;;;;7328874;19;162003;-15
2022/01/13 10:19:31;;;;;;;1.70;1.60;;;;;;;;;;7330552;19;162703;-15
2022/01/13 10:22:08;;;;;;;2.20;1.75;;;;;;;;;;7331477;19;154001;-15
2022/01/13 10:24:41;;;;;;;1.80;1.70;;;;;;;;;;7332233;19;153675;-16
2022/01/13 10:27:14;;;;;;;1.75;1.65;;;;;;;;;;7331385;19;162291;-16
2022/01/13 10:29:49;;;;;;;1.88;1.77;;;;;;;;;;7331139;19;162518;-15
2022/01/13 10:32:24;;;;;;;1.75;1.65;;;;;;;;;;7330246;19;154401;-15
2022/01/13 10:35:01;;;;;;;2.08;1.88;;;;;;;;;;7330158;19;153530;-15
2022/01/13 10:37:37;;;;;;;1.50;1.40;;;;;;;;;;7328645;19;161793;-15
2022/01/13 10:40:13;;;;;;;1.70;1.60;;;;;;;;;;7329169;19;162432;-15
2022/01/13 10:45:36;;;;;;;2.22;1.75;;;;;;;;;;7329922;19;153795;-14
2022/01/13 10:48:09;;;;;;;1.63;1.52;;;;;;;;;;7329144;19;161922;-21
2022/01/13 10:50:44;;;;;;;2.05;1.95;;;;;;;;;;7329509;19;162398;-14
2022/01/13 10:53:21;;;;;;;1.70;1.60;;;;;;;;;;7329728;19;154175;-14
2022/01/13 10:55:54;;;;;;;1.55;1.45;;;;;;;;;;7330092;19;153531;-15
2022/01/13 10:58:28;;;;;;;1.70;1.60;;;;;;;;;;7329451;19;161843;-15
2022/01/13 11:01:01;;;;;;;1.95;1.60;;;;;;;;;;7329248;19;162397;-14
2022/01/13 11:03:34;;;;;;;;;;;;;;;;;;7329987;19;154203;-14
2022/01/13 11:06:08;;;;;;;1.60;1.50;;;;;;;;;;7329510;19;153705;-14
2022/01/13 11:08:44;;;;;;;1.80;1.70;;;;;;;;;;7327885;19;162228;-14
2022/01/13 11:11:21;;;;;;;1.50;1.40;;;;;;;;;;7327525;19;162641;-14
2022/01/13 11:13:54;;;;;;;1.75;1.65;;;;;;;;;;7329077;19;153875;-14
2022/01/13 11:16:29;;;;;;;1.70;1.60;;;;;;;;;;7328035;19;153488;-14
2022/01/13 11:19:00;;;;;;;1.77;1.67;;;;;;;;;;7328672;19;161796;-14
2022/01/13 11:21:34;;;;;;;1.60;1.55;;;;;;;;;;7328505;19;162387;-14
2022/01/13 11:24:10;;;;;;;2.20;1.80;;;;;;;;;;7328839;19;154126;-14
2022/01/13 11:26:42;;;;;;;1.45;1.35;;;;;;;;;;7328733;19;153582;-14
2022/01/13 11:29:14;;;;;;;1.60;1.52;;;;;;;;;;7326954;19;161965;-15
2022/01/13 11:31:45;;;;;;;1.60;1.50;;;;;;;;;;7328180;19;162061;-14
2022/01/13 11:34:19;;;;;;;1.42;1.38;;;;;;;;;;7328591;19;154001;-15
2022/01/13 11:36:51;;;;;;;1.38;1.27;;;;;;;;;;7328411;19;153724;-14
2022/01/13 11:39:39;;;;;;;1.30;1.20;;;;;;;;;;7327916;19;161981;-14
2022/01/13 11:42:13;;;;;;;1.75;1.50;;;;;;;;;;7327810;19;162419;-13
2022/01/13 11:44:45;;;;;;;;;;;;;;;;;;7328736;19;153987;-15
2022/01/13 11:47:22;;;;;;;1.38;1.38;;;;;;;;;;7328143;19;153311;-15
2022/01/13 11:50:04;;;;;;;1.50;1.40;;;;;;;;;;7325860;19;161811;-15
2022/01/13 11:52:42;;;;;;;1.42;1.35;;;;;;;;;;7328658;19;162555;-15
2022/01/13 11:55:31;;;;;;;1.30;1.30;;;;;;;;;;7335163;19;153949;-15
2022/01/13 11:58:43;;;;;;;1.65;1.55;;;;;;;;;;7335168;19;153621;-15
2022/01/13 12:01:20;;;;;;;1.33;1.33;;;;;;;;;;7334805;19;161796;-15
2022/01/13 12:03:53;;;;;;;1.13;1.13;;;;;;;;;;7335126;19;162428;-15
2022/01/13 12:06:39;;;;;;;1.60;1.50;;;;;;;;;;7334076;19;154185;-16
2022/01/13 12:09:11;;;;;;;1.30;1.30;;;;;;;;;;7334280;19;153664;-14
2022/01/13 12:11:50;;;;;;;1.40;1.30;;;;;;;;;;7334572;19;161903;-15
2022/01/13 12:14:42;;;;;;;1.25;1.25;;;;;;;;;;7334439;19;162368;-15
2022/01/13 12:17:24;;;;;;;1.33;1.23;;;;;;;;;;7333086;19;153974;-14
2022/01/13 12:20:02;;;;;;;1.23;1.13;;;;;;;;;;7334800;19;153590;-14
2022/01/13 12:22:51;;;;;;;1.45;1.40;;;;;;;;;;7333038;19;162483;-14
2022/01/13 12:25:24;;;;;;;1.25;1.25;;;;;;;;;;7333846;19;162638;-14
2022/01/13 12:27:58;;;;;;;1.30;1.25;;;;;;;;;;7334437;19;153932;-15
2022/01/13 12:30:32;;;;;;;1.40;1.30;;;;;;;;;;7334652;19;153605;-14
2022/01/13 12:33:07;;;;;;;1.52;1.42;;;;;;;;;;7337995;19;162006;-15
2022/01/13 12:35:48;;;;;;;1.35;1.27;;;;;;;;;;7333387;19;163747;-15
2022/01/13 12:38:21;;;;;;;1.20;1.20;;;;;;;;;;7334041;19;154123;-15
2022/01/13 12:41:00;;;;;;;1.38;1.30;;;;;;;;;;7336313;19;153646;-14
2022/01/13 12:43:50;;;;;;;1.17;1.10;;;;;;;;;;7333063;19;161784;-14
2022/01/13 12:46:24;;;;;;;1.20;1.20;;;;;;;;;;7331600;19;162367;-14
2022/01/13 12:48:58;;;;;;;1.15;1.15;;;;;;;;;;7332415;19;153665;-15
2022/01/13 12:51:30;;;;;;;1.40;1.30;;;;;;;;;;7333013;19;153767;-14
2022/01/13 12:54:01;;;;;;;1.17;1.17;;;;;;;;;;7331330;19;162237;-14
2022/01/13 12:56:32;;;;;;;0.90;0.90;;;;;;;;;;7332362;19;162350;-14
2022/01/13 12:59:10;;;;;;;0.77;0.77;;;;;;;;;;7332890;19;153999;-15
2022/01/13 13:01:45;;;;;;;0.90;0.90;;;;;;;;;;7331605;19;153619;-14
2022/01/13 13:04:16;;;;;;;1.13;1.08;;;;;;;;;;7331947;19;161768;-15
2022/01/13 13:06:51;;;;;;;0.90;0.90;;;;;;;;;;7332204;19;162517;-14
2022/01/13 13:09:25;;;;;;;1.17;1.17;;;;;;;;;;7332343;19;154118;-14
2022/01/13 13:12:00;;;;;;;1.02;1.00;;;;;;;;;;7335068;19;153536;-14
2022/01/13 13:15:39;;;;;;;1.05;1.05;;;;;;;;;;7331967;19;162128;-14
2022/01/13 13:17:30;;;;;;;1.10;1.00;;;;;;;;;;7329564;19;162369;-15
2022/01/13 13:20:02;;;;;;;1.70;0.88;;;;;;;;;;7332251;19;154053;-14
2022/01/13 13:22:46;;;;;;;1.10;1.05;;;;;;;;;;7332351;19;153570;-15
2022/01/13 13:25:28;;;;;;;0.80;0.80;;;;;;;;;;7333805;19;161792;-15
2022/01/13 13:28:00;;;;;;;0.98;0.98;;;;;;;;;;7331358;19;162481;-14
2022/01/13 13:30:50;;;;;;;1.67;1.00;;;;;;;;;;7330575;19;153955;-14
2022/01/13 13:33:41;;;;;;;1.42;1.05;;;;;;;;;;7332033;19;153660;-21
2022/01/13 13:36:15;;;;;;;0.98;0.98;;;;;;;;;;7331581;19;162242;-14
2022/01/13 13:38:52;;;;;;;0.90;0.90;;;;;;;;;;7328337;19;162401;-14
2022/01/13 13:41:26;;;;;;;1.45;1.10;;;;;;;;;;7335389;19;154336;-14
2022/01/13 13:44:14;;;;;;;1.02;0.90;;;;;;;;;;7331781;19;153709;-15
2022/01/13 13:46:51;;;;;;;1.50;1.15;;;;;;;;;;7331641;19;162138;-16
2022/01/13 13:49:24;;;;;;;4.20;1.30;;;;;;;;;;7330953;19;162380;-17
2022/01/13 13:51:57;;;;;;;2.63;1.10;;;;;;;;;;7332308;19;154084;-14
2022/01/13 13:54:30;;;;;;;1.98;1.00;;;;;;;;;;7333331;19;153685;-14
2022/01/13 13:57:03;;;;;;;1.15;1.05;;;;;;;;;;7335326;19;161966;-14
2022/01/13 13:59:41;;;;;;;;;;;;;;;;;;7333082;19;162492;-15
2022/01/13 14:02:16;;;;;;;1.02;0.85;;;;;;;;;;7330895;19;154727;-14
2022/01/13 14:04:53;;;;;;;0.90;0.90;;;;;;;;;;7331017;19;153570;-14
2022/01/13 14:07:32;;;;;;;1.17;1.05;;;;;;;;;;7333784;19;161942;-14
2022/01/13 14:10:10;;;;;;;1.10;1.00;;;;;;;;;;7332144;19;162289;-14
2022/01/13 14:12:43;;;;;;;1.20;1.10;;;;;;;;;;7332046;19;153978;-15
2022/01/13 14:15:18;;;;;;;1.08;1.05;;;;;;;;;;7329534;19;153476;-14
2022/01/13 14:17:54;;;;;;;1.10;0.90;;;;;;;;;;7327593;19;161851;-14
2022/01/13 14:20:27;;;;;;;2.75;1.00;;;;;;;;;;7333805;19;162538;-14
2022/01/13 14:23:00;;;;;;;1.08;0.98;;;;;;;;;;7334409;19;153954;-14
2022/01/13 14:25:34;;;;;;;2.22;1.00;;;;;;;;;;7327848;19;153705;-15
2022/01/13 14:28:08;;;;;;;1.70;1.05;;;;;;;;;;7333699;19;161767;-15
2022/01/13 14:30:42;;;;;;;0.85;0.85;;;;;;;;;;7329924;19;162565;-14
2022/01/13 14:33:24;;;;;;;1.20;1.10;;;;;;;;;;7331194;19;154026;-15
2022/01/13 14:36:11;;;;;;;2.10;1.00;;;;;;;;;;7334943;19;153665;-16
2022/01/13 14:38:49;;;;;;;0.98;0.98;;;;;;;;;;7330533;19;161828;-14
2022/01/13 14:41:33;;;;;;;1.60;1.00;;;;;;;;;;7330355;19;162451;-14
2022/01/13 14:44:07;;;;;;;2.90;1.08;;;;;;;;;;7330263;19;154030;-16
2022/01/13 14:46:42;;;;;;;1.42;0.90;;;;;;;;;;7330780;19;153450;-24
2022/01/13 14:49:19;;;;;;;3.65;1.10;;;;;;;;;;7330108;19;161890;-15
2022/01/13 14:51:52;;;;;;;1.95;1.13;;;;;;;;;;7328341;19;162454;-14
2022/01/13 14:54:24;;;;;;;1.33;1.15;;;;;;;;;;7330242;19;154107;-22
2022/01/13 14:56:55;;;;;;;1.87;1.33;;;;;;;;;;7330123;19;153700;-16
2022/01/13 14:59:27;;;;;;;1.02;1.02;;;;;;;;;;7329955;19;161971;-15
2022/01/13 15:01:58;;;;;;;1.92;1.08;;;;;;;;;;7329758;19;162275;-14
2022/01/13 15:04:32;;;;;;;0.70;0.70;;;;;;;;;;7329041;19;154054;-14
2022/01/13 15:07:05;;;;;;;1.23;1.13;;;;;;;;;;7330060;19;153504;-15
2022/01/13 15:09:36;;;;;;;1.13;1.00;;;;;;;;;;7329571;19;162219;-15
2022/01/13 15:12:11;;;;;;;1.00;0.90;;;;;;;;;;7327783;19;162595;-14
2022/01/13 15:14:42;;;;;;;1.00;1.00;;;;;;;;;;7329776;19;154140;-15
2022/01/13 15:17:14;;;;;;;0.90;0.90;;;;;;;;;;7327541;19;153687;-15
2022/01/13 15:19:51;;;;;;;1.00;0.90;;;;;;;;;;7329229;19;162350;-15
2022/01/13 15:22:32;;;;;;;1.75;1.00;;;;;;;;;;7329127;19;162812;-14
2022/01/13 15:25:04;;;;;;;0.70;0.70;;;;;;;;;;7329534;19;153965;-15
2022/01/13 15:27:35;;;;;;;1.23;1.00;;;;;;;;;;7329885;19;153507;-15
2022/01/13 15:30:08;;;;;;;0.82;0.82;;;;;;;;;;7335801;19;161773;-14
2022/01/13 15:32:40;;;;;;;0.88;0.88;;;;;;;;;;7334256;19;162333;-15
2022/01/13 15:35:14;;;;;;;0.85;0.85;;;;;;;;;;7335855;19;154013;-15
2022/01/13 15:37:48;;;;;;;0.88;0.88;;;;;;;;;;7336067;19;153908;-15
2022/01/13 15:40:20;;;;;;;0.95;0.95;;;;;;;;;;7335362;19;162164;-14
2022/01/13 15:42:52;;;;;;;1.05;0.90;;;;;;;;;;7335174;19;162697;-15
2022/01/13 15:45:23;;;;;;;1.75;1.00;;;;;;;;;;7335784;19;153961;-23
2022/01/13 15:47:54;;;;;;;0.80;0.80;;;;;;;;;;7335800;19;153793;-15
2022/01/13 15:50:29;;;;;;;1.08;0.90;;;;;;;;;;7335356;19;161801;-15
2022/01/13 15:53:04;;;;;;;0.90;0.90;;;;;;;;;;7333372;19;162494;-15
2022/01/13 15:55:35;;;;;;;0.90;0.90;;;;;;;;;;7335541;19;153952;-16
2022/01/13 15:58:10;;;;;;;1.02;1.02;;;;;;;;;;7335389;19;153547;-15
2022/01/13 16:00:43;;;;;;;;;;;;;;;;;;7335494;19;161791;-15
2022/01/13 16:03:14;;;;;;;1.00;0.90;;;;;;;;;;7334633;19;162874;-19
2022/01/13 16:05:49;;;;;;;0.98;0.88;;;;;;;;;;7334740;19;153985;-23
2022/01/13 16:08:20;;;;;;;1.05;0.95;;;;;;;;;;7334749;19;153804;-14
2022/01/13 16:10:55;;;;;;;0.85;0.82;;;;;;;;;;7334348;19;161874;-15
2022/01/13 16:13:26;;;;;;;0.80;0.80;;;;;;;;;;7332350;19;162549;-14
2022/01/13 16:15:57;;;;;;;1.05;0.98;;;;;;;;;;7334142;19;154036;-15
2022/01/13 16:18:29;;;;;;;1.40;0.98;;;;;;;;;;7334487;19;153473;-15
2022/01/13 16:21:02;;;;;;;0.80;0.80;;;;;;;;;;7334004;19;161789;-16
2022/01/13 16:23:35;;;;;;;1.10;1.00;;;;;;;;;;7335173;19;162353;-16
2022/01/13 16:26:13;;;;;;;0.93;0.93;;;;;;;;;;7334354;19;153425;-15
2022/01/13 16:28:44;;;;;;;1.20;0.90;;;;;;;;;;7334471;19;153787;-18
2022/01/13 16:31:15;;;;;;;1.00;1.00;;;;;;;;;;7333990;19;161799;-16
2022/01/13 16:33:48;;;;;;;0.98;0.90;;;;;;;;;;7330738;19;162319;-16
2022/01/13 16:36:25;;;;;;;1.08;0.73;;;;;;;;;;7334355;19;154068;-15
2022/01/13 16:38:59;;;;;;;0.90;0.90;;;;;;;;;;7332956;19;153675;-17
2022/01/13 16:41:30;;;;;;;0.98;0.98;;;;;;;;;;7333479;19;161875;-28
2022/01/13 16:44:02;;;;;;;0.90;0.90;;;;;;;;;;7333201;19;162321;-13
2022/01/13 16:46:33;;;;;;;1.10;1.10;;;;;;;;;;7333751;19;153924;-16
2022/01/13 16:49:04;;;;;;;1.48;0.90;;;;;;;;;;7333890;19;153597;-15
2022/01/13 16:51:38;;;;;;;1.10;0.95;;;;;;;;;;7333039;19;161808;-14
2022/01/13 16:54:12;;;;;;;0.85;0.85;;;;;;;;;;7330780;19;162672;-15
2022/01/13 16:56:43;;;;;;;0.90;0.90;;;;;;;;;;7333319;19;153987;-14
2022/01/13 16:59:15;;;;;;;0.90;0.90;;;;;;;;;;7332059;19;153577;-14
2022/01/13 17:01:46;;;;;;;0.98;0.98;;;;;;;;;;7332744;19;162125;-14
2022/01/13 17:04:17;;;;;;;1.00;0.93;;;;;;;;;;7332944;19;162369;-14
2022/01/13 17:06:51;;;;;;;1.10;1.00;;;;;;;;;;7333336;19;154003;-13
2022/01/13 17:09:23;;;;;;;1.48;1.10;;;;;;;;;;7333391;19;153690;-14
2022/01/13 17:11:54;;;;;;;1.42;1.08;;;;;;;;;;7332459;19;162263;-14
2022/01/13 17:14:26;;;;;;;2.07;1.10;;;;;;;;;;7328882;19;162386;-16
2022/01/13 17:16:58;;;;;;;0.98;0.88;;;;;;;;;;7331516;19;154270;-15
2022/01/13 17:19:32;;;;;;;1.10;0.90;;;;;;;;;;7332985;19;153560;-15
2022/01/13 17:22:13;;;;;;;1.45;1.10;;;;;;;;;;7332242;19;161974;-16
2022/01/13 17:24:45;;;;;;;1.00;0.80;;;;;;;;;;7332433;19;162263;-15
2022/01/13 17:27:16;;;;;;;1.00;0.90;;;;;;;;;;7332758;19;154290;-15
2022/01/13 17:29:47;;;;;;;1.13;0.88;;;;;;;;;;7331868;19;153485;-15
2022/01/13 17:32:18;;;;;;;1.88;1.10;;;;;;;;;;7332153;19;162189;-14
2022/01/13 17:34:52;;;;;;;1.63;0.98;;;;;;;;;;7332241;19;162424;-14
2022/01/13 17:37:25;;;;;;;;;;;;;;;;;;7333074;19;154141;-14
2022/01/13 17:39:56;;;;;;;1.10;1.00;;;;;;;;;;7332682;19;153328;-15
2022/01/13 17:42:28;;;;;;;1.23;1.00;;;;;;;;;;7332099;19;161837;-14
2022/01/13 17:44:59;;;;;;;1.20;1.10;;;;;;;;;;7332004;19;162416;-15
2022/01/13 17:47:30;;;;;;;0.95;0.95;;;;;;;;;;7332220;19;154236;-14
2022/01/13 17:50:01;;;;;;;1.42;1.08;;;;;;;;;;7330084;19;153550;-14
2022/01/13 17:52:37;;;;;;;1.17;1.10;;;;;;;;;;7331536;19;162101;-14
2022/01/13 17:55:10;;;;;;;1.25;1.15;;;;;;;;;;7331848;19;162098;-15
2022/01/13 17:57:44;;;;;;;1.05;1.05;;;;;;;;;;7332075;19;154280;-15
2022/01/13 18:00:19;;;;;;;1.10;1.00;;;;;;;;;;7331709;19;153519;-15
2022/01/13 18:02:51;;;;;;;1.00;1.00;;;;;;;;;;7331558;19;161777;-15
2022/01/13 18:05:23;;;;;;;1.20;1.10;;;;;;;;;;7331115;19;162389;-14
2022/01/13 18:07:56;;;;;;;1.75;1.00;;;;;;;;;;7330434;19;154555;-14
2022/01/13 18:10:28;;;;;;;1.00;1.00;;;;;;;;;;7331549;19;153599;-14
2022/01/13 18:13:00;;;;;;;1.67;1.10;;;;;;;;;;7330696;19;161831;-15
2022/01/13 18:15:32;;;;;;;1.13;1.00;;;;;;;;;;7331312;19;162582;-15
2022/01/13 18:18:03;;;;;;;1.58;0.98;;;;;;;;;;7331449;19;154540;-15
2022/01/13 18:20:35;;;;;;;1.02;0.93;;;;;;;;;;7330389;19;153585;-15
2022/01/13 18:23:09;;;;;;;0.90;0.90;;;;;;;;;;7330940;19;162058;-17
2022/01/13 18:25:41;;;;;;;1.05;1.00;;;;;;;;;;7330940;19;162425;-14
2022/01/13 18:28:13;;;;;;;1.25;1.15;;;;;;;;;;7330823;19;154326;-15
2022/01/13 18:30:44;;;;;;;1.75;1.65;;;;;;;;;;7331099;19;153537;-16
2022/01/13 18:33:16;;;;;;;1.15;1.15;;;;;;;;;;7330426;19;161831;-15
2022/01/13 18:35:47;;;;;;;1.38;1.27;;;;;;;;;;7330426;19;162355;-15
2022/01/13 18:38:21;;;;;;;1.50;1.40;;;;;;;;;;7330906;19;153972;-15
2022/01/13 18:40:55;;;;;;;1.30;1.27;;;;;;;;;;7331003;19;153586;-16
2022/01/13 18:43:26;;;;;;;1.52;1.33;;;;;;;;;;7330423;19;161826;-15
2022/01/13 18:46:02;;;;;;;1.38;1.27;;;;;;;;;;7329041;19;162353;-16
2022/01/13 18:48:35;;;;;;;1.45;1.35;;;;;;;;;;7330829;19;154239;-15
2022/01/13 18:51:08;;;;;;;1.52;1.42;;;;;;;;;;7330836;19;153696;-15
2022/01/13 18:53:42;;;;;;;1.50;1.40;;;;;;;;;;7329547;19;162127;-15
2022/01/13 18:56:13;;;;;;;1.50;1.40;;;;;;;;;;7329823;19;162376;-15
2022/01/13 18:58:46;;;;;;;1.70;1.60;;;;;;;;;;7330088;19;153973;-15
2022/01/13 19:01:17;;;;;;;;;;;;;;;;;;7330371;19;153639;-16
2022/01/13 19:03:48;;;;;;;1.80;1.70;;;;;;;;;;7329926;19;162153;-15
2022/01/13 19:06:20;;;;;;;1.80;1.70;;;;;;;;;;7328397;19;162372;-15
2022/01/13 19:08:53;;;;;;;2.00;1.90;;;;;;;;;;7329752;19;153968;-16
2022/01/13 19:11:25;;;;;;;2.33;1.80;;;;;;;;;;7328776;19;153555;-16
2022/01/13 19:13:57;;;;;;;2.05;1.85;;;;;;;;;;7328828;19;161644;-16
2022/01/13 19:16:29;;;;;;;1.90;1.80;;;;;;;;;;7327908;19;162451;-15
2022/01/13 19:19:05;;;;;;;2.30;2.10;;;;;;;;;;7329637;19;154654;-16
2022/01/13 19:21:41;;;;;;;2.42;2.22;;;;;;;;;;7329458;19;153574;-15
2022/01/13 19:24:15;;;;;;;2.55;2.35;;;;;;;;;;7328925;19;161862;-16
2022/01/13 19:26:47;;;;;;;2.10;2.00;;;;;;;;;;7327790;19;162439;-15
2022/01/13 19:29:18;;;;;;;2.40;2.20;;;;;;;;;;7329171;19;154293;-15
2022/01/13 19:31:49;;;;;;;2.47;2.28;;;;;;;;;;7329001;19;153510;-15
2022/01/13 19:34:21;;;;;;;2.33;2.22;;;;;;;;;;7327793;19;161911;-15
2022/01/13 19:36:52;;;;;;;2.67;2.47;;;;;;;;;;7327740;19;162388;-15
2022/01/13 19:39:26;;;;;;;2.67;2.47;;;;;;;;;;7332479;19;154027;-21
2022/01/13 19:42:00;;;;;;;2.80;2.50;;;;;;;;;;7327152;19;153639;-15
2022/01/13 19:44:31;;;;;;;2.63;2.42;;;;;;;;;;7330895;19;161973;-17
2022/01/13 19:47:04;;;;;;;2.55;2.35;;;;;;;;;;7324114;19;162534;-15
2022/01/13 19:49:36;;;;;;;2.88;2.67;;;;;;;;;;7321902;19;154021;-15
2022/01/13 19:52:07;;;;;;;2.45;2.35;;;;;;;;;;7324900;19;153505;-15
2022/01/13 19:54:41;;;;;;;2.85;2.65;;;;;;;;;;7325814;19;161929;-16
2022/01/13 19:57:13;;;;;;;2.75;2.60;;;;;;;;;;7327819;19;163545;-16
2022/01/13 19:59:49;;;;;;;2.85;2.65;;;;;;;;;;7328095;19;154330;-16
2022/01/13 20:02:21;;;;;;;3.30;3.00;;;;;;;;;;7326869;19;153547;-16
2022/01/13 20:04:52;;;;;;;3.83;3.47;;;;;;;;;;7327543;19;161840;-15
2022/01/13 20:07:23;;;;;;;3.40;3.20;;;;;;;;;;7327141;19;162366;-16
2022/01/13 20:10:03;;;;;;;3.13;2.92;;;;;;;;;;7327912;19;154164;-16
2022/01/13 20:12:36;;;;;;;2.80;2.60;;;;;;;;;;7327502;19;153693;-16
2022/01/13 20:15:10;;;;;;;3.42;3.13;;;;;;;;;;7332158;19;161946;-16
2022/01/13 20:17:43;;;;;;;2.63;2.50;;;;;;;;;;7331745;19;162478;-16
2022/01/13 20:20:18;;;;;;;3.50;2.95;;;;;;;;;;7333281;19;153984;-16
2022/01/13 20:22:51;;;;;;;2.70;2.50;;;;;;;;;;7333482;19;153563;-14
2022/01/13 20:25:25;;;;;;;2.85;2.65;;;;;;;;;;7333911;19;161998;-14
2022/01/13 20:27:56;;;;;;;2.90;2.63;;;;;;;;;;7333774;19;162364;-16
2022/01/13 20:30:28;;;;;;;4.68;3.92;;;;;;;;;;7333079;19;154259;-16
2022/01/13 20:33:00;;;;;;;47.75;36.22;;;;;;;;;;7335863;19;153538;-16
2022/01/13 20:35:33;;;;;;;56.63;43.55;;;;;;;;;;7332683;19;161836;-17
2022/01/13 20:38:05;;;;;;;43.40;37.67;;;;;;;;;;7334280;19;162548;-16
2022/01/13 20:40:41;;;;;;;41.33;35.00;;;;;;;;;;7336083;19;154076;-15
2022/01/13 20:43:13;;;;;;;42.15;33.38;;;;;;;;;;7335342;19;153588;-16
2022/01/13 20:45:45;;;;;;;36.40;30.33;;;;;;;;;;7335520;19;161819;-15
2022/01/13 20:48:16;;;;;;;27.17;24.27;;;;;;;;;;7334853;19;162326;-14
2022/01/13 20:50:47;;;;;;;28.58;24.17;;;;;;;;;;7334432;19;154045;-15
2022/01/13 20:53:21;;;;;;;30.63;22.70;;;;;;;;;;7334039;19;153755;-15
2022/01/13 20:55:55;;;;;;;36.03;31.60;;;;;;;;;;7334863;19;161715;-16
2022/01/13 20:58:27;;;;;;;117.72;105.22;;;;;;;;;;7335164;19;162208;-16
2022/01/13 21:01:00;;;;;;;100.70;90.07;;;;;;;;;;7332163;19;154187;-15
2022/01/13 21:03:31;;;;;;;;;;;;;;;;;;7334995;19;153600;-14
2022/01/13 21:06:05;;;;;;;39.03;34.83;;;;;;;;;;7334237;19;161980;-15
2022/01/13 21:08:37;;;;;;;41.22;36.90;;;;;;;;;;7335937;19;162390;-15
2022/01/13 21:11:14;;;;;;;40.83;36.42;;;;;;;;;;7334439;19;153842;-15
2022/01/13 21:13:47;;;;;;;42.30;37.88;;;;;;;;;;7335490;19;153643;-15
2022/01/13 21:16:18;;;;;;;;;;;;;;;;;;7334996;19;161872;-16
2022/01/13 21:18:49;;;;;;;42.67;38.33;;;;;;;;;;7335932;19;162643;-15
2022/01/13 21:21:20;;;;;;;41.10;36.83;;;;;;;;;;7335650;19;153994;-14
2022/01/13 21:23:51;;;;;;;41.97;37.70;;;;;;;;;;7333682;19;153482;-15
2022/01/13 21:26:26;;;;;;;41.38;37.00;;;;;;;;;;7334443;19;161612;-15
2022/01/13 21:28:57;;;;;;;42.03;37.83;;;;;;;;;;7333479;19;162334;-17
2022/01/13 21:31:28;;;;;;;41.40;37.17;;;;;;;;;;7335755;19;154209;-15
2022/01/13 21:34:00;;;;;;;40.60;36.38;;;;;;;;;;7335505;19;153721;-15
2022/01/13 21:36:33;;;;;;;39.97;35.87;;;;;;;;;;7333414;19;161784;-22
2022/01/13 21:39:05;;;;;;;39.97;36.25;;;;;;;;;;7334091;19;162379;-13
2022/01/13 21:41:39;;;;;;;39.00;34.95;;;;;;;;;;7335176;19;153946;-15
2022/01/13 21:44:10;;;;;;;38.47;34.72;;;;;;;;;;7335105;19;153858;-16
2022/01/13 21:46:41;;;;;;;36.42;33.10;;;;;;;;;;7334587;19;161673;-16
2022/01/13 21:49:14;;;;;;;37.05;33.53;;;;;;;;;;7334280;19;162313;-15
2022/01/13 21:51:46;;;;;;;37.40;33.72;;;;;;;;;;7334983;19;154041;-15
2022/01/13 21:54:18;;;;;;;37.92;34.17;;;;;;;;;;7335111;19;153653;-15
2022/01/13 21:56:52;;;;;;;36.30;32.72;;;;;;;;;;7333592;19;162061;-16
2022/01/13 21:59:23;;;;;;;35.95;32.35;;;;;;;;;;7333004;19;162411;-16
2022/01/13 22:01:54;;;;;;;35.15;31.73;;;;;;;;;;7335092;19;154417;-14
2022/01/13 22:04:26;;;;;;;36.53;33.05;;;;;;;;;;7334595;19;153705;-19
2022/01/13 22:06:57;;;;;;;35.90;32.60;;;;;;;;;;7334051;19;161597;-16
2022/01/13 22:12:25;;;;;;;34.08;30.95;;;;;;;;;;7329702;19;154285;-15
2022/01/13 22:14:57;;;;;;;34.22;31.02;;;;;;;;;;7333976;19;153605;-15
2022/01/13 22:17:29;;;;;;;34.15;31.02;;;;;;;;;;7330813;19;161790;-15
2022/01/13 22:20:00;;;;;;;33.60;30.42;;;;;;;;;;7333096;19;162464;-15
2022/01/13 22:22:35;;;;;;;32.00;29.08;;;;;;;;;;7333962;19;154247;-15
2022/01/13 22:25:08;;;;;;;34.05;30.85;;;;;;;;;;7333202;19;153746;-15
2022/01/13 22:27:44;;;;;;;33.35;30.30;;;;;;;;;;7333491;19;161876;-16
2022/01/13 22:30:18;;;;;;;31.85;28.80;;;;;;;;;;7331868;19;162611;-15
2022/01/13 22:32:49;;;;;;;32.45;29.50;;;;;;;;;;7332964;19;154139;-17